sensor_id;sensor_type;location;lat;lon;timestamp;temperature;humidity
26186;DHT22;20067;48.764;9.176;2023-04-24T00:01:32;12.40;91.30
26186;DHT22;20067;48.764;9.176;2023-04-24T00:03:59;12.50;91.30
26186;DHT22;20067;48.764;9.176;2023-04-24T00:06:26;12.60;91.30
26186;DHT22;20067;48.764;9.176;2023-04-24T00:09:02;12.70;91.30
26186;DHT22;20067;48.764;9.176;2023-04-24T00:11:28;12.70;91.30
26186;DHT22;20067;48.764;9.176;2023-04-24T00:13:53;12.80;91.30
26186;DHT22;20067;48.764;9.176;2023-04-24T00:16:19;12.80;91.30
26186;DHT22;20067;48.764;9.176;2023-04-24T00:18:45;12.80;91.30
26186;DHT22;20067;48.764;9.176;2023-04-24T00:21:13;12.70;91.30
26186;DHT22;20067;48.764;9.176;2023-04-24T00:23:39;12.70;91.30
26186;DHT22;20067;48.764;9.176;2023-04-24T00:26:04;12.60;91.30
26186;DHT22;20067;48.764;9.176;2023-04-24T00:28:30;12.60;91.30
26186;DHT22;20067;48.764;9.176;2023-04-24T00:30:55;12.70;91.30
26186;DHT22;20067;48.764;9.176;2023-04-24T00:33:21;12.70;91.10
26186;DHT22;20067;48.764;9.176;2023-04-24T00:35:47;12.70;91.00
26186;DHT22;20067;48.764;9.176;2023-04-24T00:38:12;12.70;91.00
26186;DHT22;20067;48.764;9.176;2023-04-24T00:40:38;12.80;90.30
26186;DHT22;20067;48.764;9.176;2023-04-24T00:43:03;12.90;89.90
26186;DHT22;20067;48.764;9.176;2023-04-24T00:45:29;12.90;89.90
26186;DHT22;20067;48.764;9.176;2023-04-24T00:47:57;12.90;90.20
26186;DHT22;20067;48.764;9.176;2023-04-24T00:50:23;13.10;89.40
26186;DHT22;20067;48.764;9.176;2023-04-24T00:52:49;13.10;88.90
26186;DHT22;20067;48.764;9.176;2023-04-24T00:55:16;13.00;89.10
26186;DHT22;20067;48.764;9.176;2023-04-24T00:57:42;12.90;89.50
26186;DHT22;20067;48.764;9.176;2023-04-24T01:00:08;12.90;89.50
26186;DHT22;20067;48.764;9.176;2023-04-24T01:02:41;12.90;89.30
26186;DHT22;20067;48.764;9.176;2023-04-24T01:05:11;12.90;89.20
26186;DHT22;20067;48.764;9.176;2023-04-24T01:07:39;13.00;88.80
26186;DHT22;20067;48.764;9.176;2023-04-24T01:10:06;12.90;89.10
26186;DHT22;20067;48.764;9.176;2023-04-24T01:12:33;12.90;89.30
26186;DHT22;20067;48.764;9.176;2023-04-24T01:14:59;12.90;89.30
26186;DHT22;20067;48.764;9.176;2023-04-24T01:17:24;12.80;89.80
26186;DHT22;20067;48.764;9.176;2023-04-24T01:19:50;12.90;89.50
26186;DHT22;20067;48.764;9.176;2023-04-24T01:22:20;12.80;89.60
26186;DHT22;20067;48.764;9.176;2023-04-24T01:24:46;12.90;89.60
26186;DHT22;20067;48.764;9.176;2023-04-24T01:27:12;12.90;89.70
26186;DHT22;20067;48.764;9.176;2023-04-24T01:29:38;12.90;89.80
26186;DHT22;20067;48.764;9.176;2023-04-24T01:32:05;12.90;90.10
26186;DHT22;20067;48.764;9.176;2023-04-24T01:34:31;12.90;90.30
26186;DHT22;20067;48.764;9.176;2023-04-24T01:36:57;12.90;91.00
26186;DHT22;20067;48.764;9.176;2023-04-24T01:39:23;12.80;91.30
26186;DHT22;20067;48.764;9.176;2023-04-24T01:41:51;12.70;91.30
26186;DHT22;20067;48.764;9.176;2023-04-24T01:44:17;12.70;91.30
26186;DHT22;20067;48.764;9.176;2023-04-24T01:46:43;12.70;91.30
26186;DHT22;20067;48.764;9.176;2023-04-24T01:49:09;12.80;91.30
26186;DHT22;20067;48.764;9.176;2023-04-24T01:51:34;12.80;91.30
26186;DHT22;20067;48.764;9.176;2023-04-24T01:54:00;12.80;91.30
26186;DHT22;20067;48.764;9.176;2023-04-24T01:56:29;12.70;91.30
26186;DHT22;20067;48.764;9.176;2023-04-24T01:58:55;12.80;91.30
26186;DHT22;20067;48.764;9.176;2023-04-24T02:01:23;12.90;91.20
26186;DHT22;20067;48.764;9.176;2023-04-24T02:03:48;12.80;91.30
26186;DHT22;20067;48.764;9.176;2023-04-24T02:06:14;12.80;91.30
26186;DHT22;20067;48.764;9.176;2023-04-24T02:08:39;12.70;91.30
26186;DHT22;20067;48.764;9.176;2023-04-24T02:11:05;12.70;91.30
26186;DHT22;20067;48.764;9.176;2023-04-24T02:13:31;12.70;91.30
26186;DHT22;20067;48.764;9.176;2023-04-24T02:15:58;12.60;91.30
26186;DHT22;20067;48.764;9.176;2023-04-24T02:18:24;12.50;91.30
26186;DHT22;20067;48.764;9.176;2023-04-24T02:20:49;12.50;91.30
26186;DHT22;20067;48.764;9.176;2023-04-24T02:23:15;12.60;91.30
26186;DHT22;20067;48.764;9.176;2023-04-24T02:25:41;12.60;91.30
26186;DHT22;20067;48.764;9.176;2023-04-24T02:28:06;12.40;91.30
26186;DHT22;20067;48.764;9.176;2023-04-24T02:30:32;12.40;91.30
26186;DHT22;20067;48.764;9.176;2023-04-24T02:32:58;12.40;91.30
26186;DHT22;20067;48.764;9.176;2023-04-24T02:35:23;12.30;91.30
26186;DHT22;20067;48.764;9.176;2023-04-24T02:37:49;12.40;91.30
26186;DHT22;20067;48.764;9.176;2023-04-24T02:40:15;12.40;91.30
26186;DHT22;20067;48.764;9.176;2023-04-24T02:42:40;12.40;91.30
26186;DHT22;20067;48.764;9.176;2023-04-24T02:45:06;12.60;91.30
26186;DHT22;20067;48.764;9.176;2023-04-24T02:47:32;12.50;91.30
26186;DHT22;20067;48.764;9.176;2023-04-24T02:49:58;12.70;91.30
26186;DHT22;20067;48.764;9.176;2023-04-24T02:52:23;12.80;91.30
26186;DHT22;20067;48.764;9.176;2023-04-24T02:54:49;12.80;91.30
26186;DHT22;20067;48.764;9.176;2023-04-24T02:57:15;12.80;91.30
26186;DHT22;20067;48.764;9.176;2023-04-24T02:59:49;12.80;91.30
26186;DHT22;20067;48.764;9.176;2023-04-24T03:02:15;12.80;91.30
26186;DHT22;20067;48.764;9.176;2023-04-24T03:04:40;12.60;91.30
26186;DHT22;20067;48.764;9.176;2023-04-24T03:07:08;12.40;91.30
26186;DHT22;20067;48.764;9.176;2023-04-24T03:09:34;12.30;91.30
26186;DHT22;20067;48.764;9.176;2023-04-24T03:11:59;12.20;91.30
26186;DHT22;20067;48.764;9.176;2023-04-24T03:14:25;12.20;91.30
26186;DHT22;20067;48.764;9.176;2023-04-24T03:16:51;12.00;91.30
26186;DHT22;20067;48.764;9.176;2023-04-24T03:19:17;12.10;91.30
26186;DHT22;20067;48.764;9.176;2023-04-24T03:21:42;12.10;91.30
26186;DHT22;20067;48.764;9.176;2023-04-24T03:24:08;12.20;91.30
26186;DHT22;20067;48.764;9.176;2023-04-24T03:26:35;12.20;91.30
26186;DHT22;20067;48.764;9.176;2023-04-24T03:29:01;12.20;91.30
26186;DHT22;20067;48.764;9.176;2023-04-24T03:31:26;12.10;91.30
26186;DHT22;20067;48.764;9.176;2023-04-24T03:33:52;12.20;91.30
26186;DHT22;20067;48.764;9.176;2023-04-24T03:36:18;12.20;91.30
26186;DHT22;20067;48.764;9.176;2023-04-24T03:38:44;12.00;91.30
26186;DHT22;20067;48.764;9.176;2023-04-24T03:41:10;12.10;91.30
26186;DHT22;20067;48.764;9.176;2023-04-24T03:43:37;12.10;91.30
26186;DHT22;20067;48.764;9.176;2023-04-24T03:46:02;12.30;91.30
26186;DHT22;20067;48.764;9.176;2023-04-24T03:48:28;12.30;91.30
26186;DHT22;20067;48.764;9.176;2023-04-24T03:50:54;12.20;91.30
26186;DHT22;20067;48.764;9.176;2023-04-24T03:53:19;12.10;91.30
26186;DHT22;20067;48.764;9.176;2023-04-24T03:55:45;12.00;91.30
26186;DHT22;20067;48.764;9.176;2023-04-24T03:58:11;11.90;91.30
26186;DHT22;20067;48.764;9.176;2023-04-24T04:00:37;11.80;91.30
26186;DHT22;20067;48.764;9.176;2023-04-24T04:03:03;11.80;91.30
26186;DHT22;20067;48.764;9.176;2023-04-24T04:05:29;11.80;91.30
26186;DHT22;20067;48.764;9.176;2023-04-24T04:07:54;11.70;91.30
26186;DHT22;20067;48.764;9.176;2023-04-24T04:10:20;11.60;91.30
26186;DHT22;20067;48.764;9.176;2023-04-24T04:12:46;11.70;91.30
26186;DHT22;20067;48.764;9.176;2023-04-24T04:15:12;11.80;91.30
26186;DHT22;20067;48.764;9.176;2023-04-24T04:17:38;11.90;91.30
26186;DHT22;20067;48.764;9.176;2023-04-24T04:20:04;11.90;91.30
26186;DHT22;20067;48.764;9.176;2023-04-24T04:22:36;11.80;91.30
26186;DHT22;20067;48.764;9.176;2023-04-24T04:25:03;11.80;91.30
26186;DHT22;20067;48.764;9.176;2023-04-24T04:27:28;11.90;91.30
26186;DHT22;20067;48.764;9.176;2023-04-24T04:30:01;12.00;91.30
26186;DHT22;20067;48.764;9.176;2023-04-24T04:32:33;12.00;91.30
26186;DHT22;20067;48.764;9.176;2023-04-24T04:34:59;12.00;91.30
26186;DHT22;20067;48.764;9.176;2023-04-24T04:37:28;12.10;91.30
26186;DHT22;20067;48.764;9.176;2023-04-24T04:39:54;12.10;91.30
26186;DHT22;20067;48.764;9.176;2023-04-24T04:42:20;12.20;91.30
26186;DHT22;20067;48.764;9.176;2023-04-24T04:44:46;12.20;91.30
26186;DHT22;20067;48.764;9.176;2023-04-24T04:47:11;12.20;91.30
26186;DHT22;20067;48.764;9.176;2023-04-24T04:49:38;12.00;91.30
26186;DHT22;20067;48.764;9.176;2023-04-24T04:52:04;12.00;91.30
26186;DHT22;20067;48.764;9.176;2023-04-24T04:54:30;12.00;91.30
26186;DHT22;20067;48.764;9.176;2023-04-24T04:56:56;12.10;91.30
26186;DHT22;20067;48.764;9.176;2023-04-24T04:59:22;12.00;91.30
26186;DHT22;20067;48.764;9.176;2023-04-24T05:01:48;12.10;91.30
26186;DHT22;20067;48.764;9.176;2023-04-24T05:04:13;11.80;91.30
26186;DHT22;20067;48.764;9.176;2023-04-24T05:06:39;11.60;91.30
26186;DHT22;20067;48.764;9.176;2023-04-24T05:09:05;11.60;91.30
26186;DHT22;20067;48.764;9.176;2023-04-24T05:11:30;11.60;91.30
26186;DHT22;20067;48.764;9.176;2023-04-24T05:13:56;11.70;91.30
26186;DHT22;20067;48.764;9.176;2023-04-24T05:16:21;11.60;91.30
26186;DHT22;20067;48.764;9.176;2023-04-24T05:18:47;11.60;91.30
26186;DHT22;20067;48.764;9.176;2023-04-24T05:21:13;11.60;91.30
26186;DHT22;20067;48.764;9.176;2023-04-24T05:23:38;11.50;91.30
26186;DHT22;20067;48.764;9.176;2023-04-24T05:26:04;11.50;91.30
26186;DHT22;20067;48.764;9.176;2023-04-24T05:28:30;11.30;91.30
26186;DHT22;20067;48.764;9.176;2023-04-24T05:30:55;11.30;91.30
26186;DHT22;20067;48.764;9.176;2023-04-24T05:33:21;11.40;91.30
26186;DHT22;20067;48.764;9.176;2023-04-24T05:35:48;11.40;91.30
26186;DHT22;20067;48.764;9.176;2023-04-24T05:38:13;11.40;91.30
26186;DHT22;20067;48.764;9.176;2023-04-24T05:40:39;11.50;91.30
26186;DHT22;20067;48.764;9.176;2023-04-24T05:43:05;11.50;91.30
26186;DHT22;20067;48.764;9.176;2023-04-24T05:45:31;11.40;91.30
26186;DHT22;20067;48.764;9.176;2023-04-24T05:47:57;11.50;91.30
26186;DHT22;20067;48.764;9.176;2023-04-24T05:50:22;11.60;91.30
26186;DHT22;20067;48.764;9.176;2023-04-24T05:52:48;11.80;91.30
26186;DHT22;20067;48.764;9.176;2023-04-24T05:55:14;11.90;91.30
26186;DHT22;20067;48.764;9.176;2023-04-24T05:57:42;12.00;91.30
26186;DHT22;20067;48.764;9.176;2023-04-24T06:00:09;11.90;91.30
26186;DHT22;20067;48.764;9.176;2023-04-24T06:02:37;11.90;91.30
26186;DHT22;20067;48.764;9.176;2023-04-24T06:05:03;11.90;91.20
26186;DHT22;20067;48.764;9.176;2023-04-24T06:07:30;11.90;91.20
26186;DHT22;20067;48.764;9.176;2023-04-24T06:09:56;11.90;90.80
26186;DHT22;20067;48.764;9.176;2023-04-24T06:12:22;11.90;91.20
26186;DHT22;20067;48.764;9.176;2023-04-24T06:14:48;11.90;91.10
26186;DHT22;20067;48.764;9.176;2023-04-24T06:17:15;12.10;90.50
26186;DHT22;20067;48.764;9.176;2023-04-24T06:19:41;12.00;90.20
26186;DHT22;20067;48.764;9.176;2023-04-24T06:22:07;12.30;89.40
26186;DHT22;20067;48.764;9.176;2023-04-24T06:24:34;12.30;89.30
26186;DHT22;20067;48.764;9.176;2023-04-24T06:26:59;12.20;89.70
26186;DHT22;20067;48.764;9.176;2023-04-24T06:29:26;12.10;90.30
26186;DHT22;20067;48.764;9.176;2023-04-24T06:31:52;12.10;89.60
26186;DHT22;20067;48.764;9.176;2023-04-24T06:34:18;12.10;90.00
26186;DHT22;20067;48.764;9.176;2023-04-24T06:36:43;12.10;89.30
26186;DHT22;20067;48.764;9.176;2023-04-24T06:39:09;12.10;89.40
26186;DHT22;20067;48.764;9.176;2023-04-24T06:41:35;12.00;88.70
26186;DHT22;20067;48.764;9.176;2023-04-24T06:44:01;11.90;89.80
26186;DHT22;20067;48.764;9.176;2023-04-24T06:46:26;11.90;89.20
26186;DHT22;20067;48.764;9.176;2023-04-24T06:48:53;11.80;88.70
26186;DHT22;20067;48.764;9.176;2023-04-24T06:51:26;12.00;88.10
26186;DHT22;20067;48.764;9.176;2023-04-24T06:53:55;12.20;87.80
26186;DHT22;20067;48.764;9.176;2023-04-24T06:56:22;12.30;86.70
26186;DHT22;20067;48.764;9.176;2023-04-24T06:58:48;12.40;86.30
26186;DHT22;20067;48.764;9.176;2023-04-24T07:01:13;12.70;84.90
26186;DHT22;20067;48.764;9.176;2023-04-24T07:03:39;12.90;84.00
26186;DHT22;20067;48.764;9.176;2023-04-24T07:06:05;13.10;84.10
26186;DHT22;20067;48.764;9.176;2023-04-24T07:08:31;13.30;83.30
26186;DHT22;20067;48.764;9.176;2023-04-24T07:10:59;13.70;82.50
26186;DHT22;20067;48.764;9.176;2023-04-24T07:13:25;13.70;81.30
26186;DHT22;20067;48.764;9.176;2023-04-24T07:15:50;13.50;81.70
26186;DHT22;20067;48.764;9.176;2023-04-24T07:18:18;13.40;82.60
26186;DHT22;20067;48.764;9.176;2023-04-24T07:20:44;13.30;82.30
26186;DHT22;20067;48.764;9.176;2023-04-24T07:23:10;13.20;82.50
26186;DHT22;20067;48.764;9.176;2023-04-24T07:25:36;13.20;83.10
26186;DHT22;20067;48.764;9.176;2023-04-24T07:28:01;13.20;84.10
26186;DHT22;20067;48.764;9.176;2023-04-24T07:30:27;13.20;81.20
26186;DHT22;20067;48.764;9.176;2023-04-24T07:32:58;13.20;80.40
26186;DHT22;20067;48.764;9.176;2023-04-24T07:35:24;13.20;80.20
26186;DHT22;20067;48.764;9.176;2023-04-24T07:37:52;13.20;78.70
26186;DHT22;20067;48.764;9.176;2023-04-24T07:40:18;13.30;77.80
26186;DHT22;20067;48.764;9.176;2023-04-24T07:42:44;14.00;77.90
26186;DHT22;20067;48.764;9.176;2023-04-24T07:45:10;15.90;72.20
26186;DHT22;20067;48.764;9.176;2023-04-24T07:47:35;17.80;68.00
26186;DHT22;20067;48.764;9.176;2023-04-24T07:50:03;17.50;66.20
26186;DHT22;20067;48.764;9.176;2023-04-24T07:52:29;17.90;68.90
26186;DHT22;20067;48.764;9.176;2023-04-24T07:54:55;18.80;63.90
26186;DHT22;20067;48.764;9.176;2023-04-24T07:57:24;18.00;63.10
26186;DHT22;20067;48.764;9.176;2023-04-24T07:59:50;16.50;66.40
26186;DHT22;20067;48.764;9.176;2023-04-24T08:02:16;15.60;68.50
26186;DHT22;20067;48.764;9.176;2023-04-24T08:04:42;15.90;67.00
26186;DHT22;20067;48.764;9.176;2023-04-24T08:07:07;15.40;68.40
26186;DHT22;20067;48.764;9.176;2023-04-24T08:09:33;15.20;69.20
26186;DHT22;20067;48.764;9.176;2023-04-24T08:11:59;15.90;67.20
26186;DHT22;20067;48.764;9.176;2023-04-24T08:14:25;16.70;66.60
26186;DHT22;20067;48.764;9.176;2023-04-24T08:16:53;16.90;63.50
26186;DHT22;20067;48.764;9.176;2023-04-24T08:19:20;15.80;66.10
26186;DHT22;20067;48.764;9.176;2023-04-24T08:21:46;15.40;67.60
26186;DHT22;20067;48.764;9.176;2023-04-24T08:24:11;15.80;66.70
26186;DHT22;20067;48.764;9.176;2023-04-24T08:26:37;15.80;66.40
26186;DHT22;20067;48.764;9.176;2023-04-24T08:29:04;16.00;66.10
26186;DHT22;20067;48.764;9.176;2023-04-24T08:31:32;15.70;67.50
26186;DHT22;20067;48.764;9.176;2023-04-24T08:33:58;16.60;65.60
26186;DHT22;20067;48.764;9.176;2023-04-24T08:36:25;17.30;64.50
26186;DHT22;20067;48.764;9.176;2023-04-24T08:38:51;18.30;62.30
26186;DHT22;20067;48.764;9.176;2023-04-24T08:41:18;19.20;59.10
26186;DHT22;20067;48.764;9.176;2023-04-24T08:43:46;18.50;59.70
26186;DHT22;20067;48.764;9.176;2023-04-24T08:46:13;17.70;61.40
26186;DHT22;20067;48.764;9.176;2023-04-24T08:48:39;16.80;63.10
26186;DHT22;20067;48.764;9.176;2023-04-24T08:51:09;16.00;65.00
26186;DHT22;20067;48.764;9.176;2023-04-24T08:53:35;15.80;66.10
26186;DHT22;20067;48.764;9.176;2023-04-24T08:56:02;15.40;68.30
26186;DHT22;20067;48.764;9.176;2023-04-24T08:58:29;15.20;70.10
26186;DHT22;20067;48.764;9.176;2023-04-24T09:00:55;15.80;69.30
26186;DHT22;20067;48.764;9.176;2023-04-24T09:03:21;17.20;66.20
26186;DHT22;20067;48.764;9.176;2023-04-24T09:05:48;17.40;65.00
26186;DHT22;20067;48.764;9.176;2023-04-24T09:08:16;16.90;65.10
26186;DHT22;20067;48.764;9.176;2023-04-24T09:10:42;16.40;66.90
26186;DHT22;20067;48.764;9.176;2023-04-24T09:13:09;16.10;68.20
26186;DHT22;20067;48.764;9.176;2023-04-24T09:15:36;15.90;68.80
26186;DHT22;20067;48.764;9.176;2023-04-24T09:18:02;14.90;68.50
26186;DHT22;20067;48.764;9.176;2023-04-24T09:20:28;14.70;70.50
26186;DHT22;20067;48.764;9.176;2023-04-24T09:22:55;14.30;71.80
26186;DHT22;20067;48.764;9.176;2023-04-24T09:25:22;13.90;75.00
26186;DHT22;20067;48.764;9.176;2023-04-24T09:27:47;13.80;74.80
26186;DHT22;20067;48.764;9.176;2023-04-24T09:30:14;13.70;75.60
26186;DHT22;20067;48.764;9.176;2023-04-24T09:32:46;13.90;75.10
26186;DHT22;20067;48.764;9.176;2023-04-24T09:35:14;13.90;75.30
26186;DHT22;20067;48.764;9.176;2023-04-24T09:37:45;13.60;76.60
26186;DHT22;20067;48.764;9.176;2023-04-24T09:40:16;13.90;76.40
26186;DHT22;20067;48.764;9.176;2023-04-24T09:42:56;14.00;74.90
26186;DHT22;20067;48.764;9.176;2023-04-24T09:45:36;14.00;74.00
26186;DHT22;20067;48.764;9.176;2023-04-24T09:48:03;14.80;73.90
26186;DHT22;20067;48.764;9.176;2023-04-24T09:50:32;15.40;70.20
26186;DHT22;20067;48.764;9.176;2023-04-24T09:53:03;14.90;70.40
26186;DHT22;20067;48.764;9.176;2023-04-24T09:55:29;14.40;71.90
26186;DHT22;20067;48.764;9.176;2023-04-24T09:57:59;14.20;71.00
26186;DHT22;20067;48.764;9.176;2023-04-24T10:00:32;14.00;72.40
26186;DHT22;20067;48.764;9.176;2023-04-24T10:03:00;13.90;72.40
26186;DHT22;20067;48.764;9.176;2023-04-24T10:05:33;13.90;72.60
26186;DHT22;20067;48.764;9.176;2023-04-24T10:08:07;13.90;71.40
26186;DHT22;20067;48.764;9.176;2023-04-24T10:10:36;13.60;71.20
26186;DHT22;20067;48.764;9.176;2023-04-24T10:13:04;13.60;70.10
26186;DHT22;20067;48.764;9.176;2023-04-24T10:15:30;13.90;69.50
26186;DHT22;20067;48.764;9.176;2023-04-24T10:17:58;14.70;65.90
26186;DHT22;20067;48.764;9.176;2023-04-24T10:20:26;15.60;63.30
26186;DHT22;20067;48.764;9.176;2023-04-24T10:22:53;16.80;61.80
26186;DHT22;20067;48.764;9.176;2023-04-24T10:25:21;18.10;59.90
26186;DHT22;20067;48.764;9.176;2023-04-24T10:27:48;18.60;58.50
26186;DHT22;20067;48.764;9.176;2023-04-24T10:30:15;17.90;57.80
26186;DHT22;20067;48.764;9.176;2023-04-24T10:32:41;17.90;57.30
26186;DHT22;20067;48.764;9.176;2023-04-24T10:35:07;17.30;58.00
26186;DHT22;20067;48.764;9.176;2023-04-24T10:37:43;16.70;58.20
26186;DHT22;20067;48.764;9.176;2023-04-24T10:40:10;15.90;60.60
26186;DHT22;20067;48.764;9.176;2023-04-24T10:42:40;15.70;60.80
26186;DHT22;20067;48.764;9.176;2023-04-24T10:45:20;15.00;62.50
26186;DHT22;20067;48.764;9.176;2023-04-24T10:48:04;14.70;64.30
26186;DHT22;20067;48.764;9.176;2023-04-24T10:50:45;14.70;65.30
26186;DHT22;20067;48.764;9.176;2023-04-24T10:53:22;14.80;64.70
26186;DHT22;20067;48.764;9.176;2023-04-24T10:56:05;14.60;65.10
26186;DHT22;20067;48.764;9.176;2023-04-24T10:58:42;14.30;66.20
26186;DHT22;20067;48.764;9.176;2023-04-24T11:04:00;14.40;66.70
26186;DHT22;20067;48.764;9.176;2023-04-24T11:06:34;14.40;66.50
26186;DHT22;20067;48.764;9.176;2023-04-24T11:09:10;14.10;67.10
26186;DHT22;20067;48.764;9.176;2023-04-24T11:11:45;13.70;68.00
26186;DHT22;20067;48.764;9.176;2023-04-24T11:14:15;13.50;68.90
26186;DHT22;20067;48.764;9.176;2023-04-24T11:16:44;13.60;69.00
26186;DHT22;20067;48.764;9.176;2023-04-24T11:21:47;13.40;68.60
26186;DHT22;20067;48.764;9.176;2023-04-24T11:32:38;14.20;68.30
26186;DHT22;20067;48.764;9.176;2023-04-24T11:37:42;15.70;63.00
26186;DHT22;20067;48.764;9.176;2023-04-24T11:40:11;15.60;64.20
26186;DHT22;20067;48.764;9.176;2023-04-24T11:42:39;15.70;63.90
26186;DHT22;20067;48.764;9.176;2023-04-24T11:47:35;15.20;64.80
26186;DHT22;20067;48.764;9.176;2023-04-24T11:50:02;14.30;66.70
26186;DHT22;20067;48.764;9.176;2023-04-24T11:52:32;14.30;67.70
26186;DHT22;20067;48.764;9.176;2023-04-24T11:54:59;14.30;67.40
26186;DHT22;20067;48.764;9.176;2023-04-24T11:57:26;14.30;67.50
26186;DHT22;20067;48.764;9.176;2023-04-24T11:59:54;14.20;69.00
26186;DHT22;20067;48.764;9.176;2023-04-24T12:02:26;14.00;70.30
26186;DHT22;20067;48.764;9.176;2023-04-24T12:04:53;14.40;70.40
26186;DHT22;20067;48.764;9.176;2023-04-24T12:07:19;14.90;67.60
26186;DHT22;20067;48.764;9.176;2023-04-24T12:10:05;15.10;66.30
26186;DHT22;20067;48.764;9.176;2023-04-24T12:12:31;15.30;64.40
26186;DHT22;20067;48.764;9.176;2023-04-24T12:14:58;15.40;65.10
26186;DHT22;20067;48.764;9.176;2023-04-24T12:19:51;14.90;65.70
26186;DHT22;20067;48.764;9.176;2023-04-24T12:22:17;14.50;66.60
26186;DHT22;20067;48.764;9.176;2023-04-24T12:24:56;14.20;67.30
26186;DHT22;20067;48.764;9.176;2023-04-24T12:27:22;13.90;68.70
26186;DHT22;20067;48.764;9.176;2023-04-24T12:29:56;13.90;68.70
26186;DHT22;20067;48.764;9.176;2023-04-24T12:32:22;13.70;68.00
26186;DHT22;20067;48.764;9.176;2023-04-24T12:34:49;13.50;68.20
26186;DHT22;20067;48.764;9.176;2023-04-24T12:37:16;13.40;68.10
26186;DHT22;20067;48.764;9.176;2023-04-24T12:42:46;13.80;67.80
26186;DHT22;20067;48.764;9.176;2023-04-24T12:45:16;14.00;67.90
26186;DHT22;20067;48.764;9.176;2023-04-24T12:47:44;14.10;67.30
26186;DHT22;20067;48.764;9.176;2023-04-24T12:50:14;14.30;66.60
26186;DHT22;20067;48.764;9.176;2023-04-24T12:52:41;14.20;66.50
26186;DHT22;20067;48.764;9.176;2023-04-24T12:55:07;14.10;67.20
26186;DHT22;20067;48.764;9.176;2023-04-24T12:57:35;14.00;67.30
26186;DHT22;20067;48.764;9.176;2023-04-24T13:00:02;13.90;68.50
26186;DHT22;20067;48.764;9.176;2023-04-24T13:02:29;13.60;70.00
26186;DHT22;20067;48.764;9.176;2023-04-24T13:04:59;13.30;70.60
26186;DHT22;20067;48.764;9.176;2023-04-24T13:07:25;13.10;71.60
26186;DHT22;20067;48.764;9.176;2023-04-24T13:09:52;13.10;72.00
26186;DHT22;20067;48.764;9.176;2023-04-24T13:12:19;13.10;74.70
26186;DHT22;20067;48.764;9.176;2023-04-24T13:14:48;12.90;78.80
26186;DHT22;20067;48.764;9.176;2023-04-24T13:17:14;12.90;78.20
26186;DHT22;20067;48.764;9.176;2023-04-24T13:19:42;13.10;80.30
26186;DHT22;20067;48.764;9.176;2023-04-24T13:22:10;13.10;77.40
26186;DHT22;20067;48.764;9.176;2023-04-24T13:24:37;13.30;78.60
26186;DHT22;20067;48.764;9.176;2023-04-24T13:27:03;13.70;77.50
26186;DHT22;20067;48.764;9.176;2023-04-24T13:29:32;14.20;76.20
26186;DHT22;20067;48.764;9.176;2023-04-24T13:32:00;14.60;73.90
26186;DHT22;20067;48.764;9.176;2023-04-24T13:34:26;14.60;73.20
26186;DHT22;20067;48.764;9.176;2023-04-24T13:36:54;14.40;74.50
26186;DHT22;20067;48.764;9.176;2023-04-24T13:39:21;14.30;74.00
26186;DHT22;20067;48.764;9.176;2023-04-24T13:41:47;14.00;74.20
26186;DHT22;20067;48.764;9.176;2023-04-24T13:44:14;13.80;75.60
26186;DHT22;20067;48.764;9.176;2023-04-24T13:46:42;13.70;76.30
26186;DHT22;20067;48.764;9.176;2023-04-24T13:49:10;13.60;75.60
26186;DHT22;20067;48.764;9.176;2023-04-24T13:51:37;13.30;76.10
26186;DHT22;20067;48.764;9.176;2023-04-24T13:54:03;13.10;79.60
26186;DHT22;20067;48.764;9.176;2023-04-24T13:56:29;12.40;83.30
26186;DHT22;20067;48.764;9.176;2023-04-24T13:58:56;12.20;83.60
26186;DHT22;20067;48.764;9.176;2023-04-24T14:01:21;11.90;84.40
26186;DHT22;20067;48.764;9.176;2023-04-24T14:03:50;11.90;84.90
26186;DHT22;20067;48.764;9.176;2023-04-24T14:06:17;11.90;85.90
26186;DHT22;20067;48.764;9.176;2023-04-24T14:08:43;12.40;84.90
26186;DHT22;20067;48.764;9.176;2023-04-24T14:11:08;12.80;82.80
26186;DHT22;20067;48.764;9.176;2023-04-24T14:13:36;13.20;81.50
26186;DHT22;20067;48.764;9.176;2023-04-24T14:16:03;13.40;82.00
26186;DHT22;20067;48.764;9.176;2023-04-24T14:18:29;13.60;80.10
26186;DHT22;20067;48.764;9.176;2023-04-24T14:20:55;13.70;80.90
26186;DHT22;20067;48.764;9.176;2023-04-24T14:23:20;13.70;79.50
26186;DHT22;20067;48.764;9.176;2023-04-24T14:25:46;13.70;80.20
26186;DHT22;20067;48.764;9.176;2023-04-24T14:28:13;13.70;79.50
26186;DHT22;20067;48.764;9.176;2023-04-24T14:30:39;13.70;79.30
26186;DHT22;20067;48.764;9.176;2023-04-24T14:33:06;13.50;78.60
26186;DHT22;20067;48.764;9.176;2023-04-24T14:35:31;13.30;77.50
26186;DHT22;20067;48.764;9.176;2023-04-24T14:37:59;13.30;78.60
26186;DHT22;20067;48.764;9.176;2023-04-24T14:40:25;13.70;77.80
26186;DHT22;20067;48.764;9.176;2023-04-24T14:42:51;14.00;77.00
26186;DHT22;20067;48.764;9.176;2023-04-24T14:45:18;14.10;76.20
26186;DHT22;20067;48.764;9.176;2023-04-24T14:47:43;13.90;76.40
26186;DHT22;20067;48.764;9.176;2023-04-24T14:50:09;13.80;76.80
26186;DHT22;20067;48.764;9.176;2023-04-24T14:52:36;13.80;77.00
26186;DHT22;20067;48.764;9.176;2023-04-24T14:55:03;13.80;77.80
26186;DHT22;20067;48.764;9.176;2023-04-24T14:57:28;14.00;77.10
26186;DHT22;20067;48.764;9.176;2023-04-24T14:59:54;14.00;76.30
26186;DHT22;20067;48.764;9.176;2023-04-24T15:02:20;13.80;76.50
26186;DHT22;20067;48.764;9.176;2023-04-24T15:04:46;14.10;75.50
26186;DHT22;20067;48.764;9.176;2023-04-24T15:07:11;14.30;75.90
26186;DHT22;20067;48.764;9.176;2023-04-24T15:09:37;14.50;73.80
26186;DHT22;20067;48.764;9.176;2023-04-24T15:12:03;14.40;74.70
26186;DHT22;20067;48.764;9.176;2023-04-24T15:14:29;14.10;73.70
26186;DHT22;20067;48.764;9.176;2023-04-24T15:16:55;13.90;74.30
26186;DHT22;20067;48.764;9.176;2023-04-24T15:19:20;13.90;75.00
26186;DHT22;20067;48.764;9.176;2023-04-24T15:21:46;13.80;74.70
26186;DHT22;20067;48.764;9.176;2023-04-24T15:24:12;13.60;75.30
26186;DHT22;20067;48.764;9.176;2023-04-24T15:26:37;13.50;75.30
26186;DHT22;20067;48.764;9.176;2023-04-24T15:29:03;13.40;75.90
26186;DHT22;20067;48.764;9.176;2023-04-24T15:31:29;13.40;75.10
26186;DHT22;20067;48.764;9.176;2023-04-24T15:33:54;13.40;75.90
26186;DHT22;20067;48.764;9.176;2023-04-24T15:36:20;13.40;75.20
26186;DHT22;20067;48.764;9.176;2023-04-24T15:38:46;13.30;77.50
26186;DHT22;20067;48.764;9.176;2023-04-24T15:41:12;13.50;76.40
26186;DHT22;20067;48.764;9.176;2023-04-24T15:43:38;13.70;76.80
26186;DHT22;20067;48.764;9.176;2023-04-24T15:46:06;13.60;81.50
26186;DHT22;20067;48.764;9.176;2023-04-24T15:48:32;12.90;82.20
26186;DHT22;20067;48.764;9.176;2023-04-24T15:50:58;12.40;83.30
26186;DHT22;20067;48.764;9.176;2023-04-24T15:53:24;12.20;84.20